createdAt,value
2018-03-14T00:02:19.455Z,5.70
2018-03-14T00:04:46.922Z,5.80
2018-03-14T00:07:14.399Z,5.70
2018-03-14T00:09:42.647Z,5.60
2018-03-14T00:12:10.123Z,5.60
2018-03-14T00:14:37.595Z,5.60
2018-03-14T00:17:05.840Z,5.70
2018-03-14T00:19:33.307Z,5.80
2018-03-14T00:22:00.790Z,5.50
2018-03-14T00:24:29.027Z,5.70
2018-03-14T00:26:56.516Z,5.60
2018-03-14T00:29:24.761Z,5.70
2018-03-14T00:31:52.235Z,5.80
2018-03-14T00:34:19.715Z,5.80
2018-03-14T00:36:47.958Z,5.70
2018-03-14T00:39:15.414Z,6.00
2018-03-14T00:41:42.897Z,5.60
2018-03-14T00:44:11.148Z,5.70
2018-03-14T00:46:38.652Z,5.70
2018-03-14T00:49:06.143Z,5.70
2018-03-14T00:51:33.632Z,5.60
2018-03-14T00:54:01.112Z,5.70
2018-03-14T00:56:29.347Z,5.70
2018-03-14T00:58:56.827Z,5.70
2018-03-14T01:01:24.296Z,5.70
2018-03-14T01:03:51.813Z,5.70
2018-03-14T01:06:20.010Z,5.80
2018-03-14T01:08:47.503Z,5.90
2018-03-14T01:11:15.735Z,5.80
2018-03-14T01:13:43.215Z,5.70
2018-03-14T01:16:10.688Z,5.70
2018-03-14T01:18:38.172Z,5.60
2018-03-14T01:21:05.647Z,5.60
2018-03-14T01:23:33.128Z,5.90
2018-03-14T01:26:00.607Z,5.50
2018-03-14T01:28:28.101Z,5.50
2018-03-14T01:30:55.568Z,5.40
2018-03-14T01:33:23.054Z,5.40
2018-03-14T01:35:50.535Z,5.30
2018-03-14T01:38:18.012Z,5.30
2018-03-14T01:40:46.250Z,5.30
2018-03-14T01:43:13.719Z,5.50
2018-03-14T01:45:41.195Z,5.60
2018-03-14T01:48:08.679Z,5.30
2018-03-14T01:50:36.151Z,5.20
2018-03-14T01:53:15.497Z,5.20
2018-03-14T01:55:43.701Z,5.20
2018-03-14T01:58:11.179Z,5.20
2018-03-14T02:00:38.649Z,5.10
2018-03-14T02:03:06.907Z,5.00
2018-03-14T02:05:34.375Z,5.00
2018-03-14T02:08:01.848Z,5.20
2018-03-14T02:10:30.091Z,5.00
2018-03-14T02:12:57.559Z,5.10
2018-03-14T02:15:25.023Z,5.30
2018-03-14T02:17:52.498Z,5.10
2018-03-14T02:20:20.740Z,5.00
2018-03-14T02:22:48.234Z,5.10
2018-03-14T02:25:16.476Z,5.10
2018-03-14T02:27:43.955Z,5.00
2018-03-14T02:30:11.466Z,5.10
2018-03-14T02:32:39.679Z,5.00
2018-03-14T02:35:07.147Z,5.00
2018-03-14T02:37:34.619Z,5.10
2018-03-14T02:40:02.869Z,5.00
2018-03-14T02:42:30.361Z,5.10
2018-03-14T02:44:58.599Z,5.00
2018-03-14T02:47:26.075Z,5.20
2018-03-14T02:49:53.542Z,5.20
2018-03-14T02:52:21.779Z,5.00
2018-03-14T02:54:49.262Z,4.80
2018-03-14T02:57:16.725Z,5.00
2018-03-14T02:59:44.201Z,5.10
2018-03-14T03:02:12.437Z,5.30
2018-03-14T03:04:39.912Z,5.10
2018-03-14T03:07:07.376Z,5.10
2018-03-14T03:09:34.851Z,5.20
2018-03-14T03:12:03.092Z,5.20
2018-03-14T03:14:30.568Z,5.30
2018-03-14T03:16:58.036Z,5.20
2018-03-14T03:19:26.277Z,5.20
2018-03-14T03:21:53.739Z,5.10
2018-03-14T03:24:21.220Z,5.10
2018-03-14T03:26:48.697Z,5.00
2018-03-14T03:29:16.936Z,5.00
2018-03-14T03:31:44.415Z,5.20
2018-03-14T03:34:11.887Z,5.10
2018-03-14T03:36:40.123Z,5.10
2018-03-14T03:39:08.368Z,5.00
2018-03-14T03:41:35.849Z,5.00
2018-03-14T03:44:03.328Z,5.10
2018-03-14T03:46:30.791Z,5.10
2018-03-14T03:48:58.271Z,5.00
2018-03-14T03:51:26.499Z,5.10
2018-03-14T03:53:53.967Z,5.20
2018-03-14T03:56:21.431Z,5.00
2018-03-14T03:58:48.900Z,5.10
2018-03-14T04:01:16.367Z,5.20
2018-03-14T04:03:43.854Z,5.20
2018-03-14T04:06:11.336Z,5.20
2018-03-14T04:08:38.815Z,5.30
2018-03-14T04:11:06.285Z,5.20
2018-03-14T04:13:33.760Z,5.30
2018-03-14T04:16:01.240Z,5.40
2018-03-14T04:18:29.497Z,5.40
2018-03-14T04:20:57.344Z,5.30
2018-03-14T04:23:24.819Z,5.30
2018-03-14T04:25:52.295Z,5.30
2018-03-14T04:28:20.538Z,5.20
2018-03-14T04:30:48.008Z,5.30
2018-03-14T04:33:15.493Z,5.10
2018-03-14T04:35:43.726Z,5.00
2018-03-14T04:38:11.202Z,5.00
2018-03-14T04:40:38.658Z,5.00
2018-03-14T04:43:06.128Z,5.00
2018-03-14T04:45:34.373Z,5.00
2018-03-14T04:48:01.852Z,5.00
2018-03-14T04:50:29.336Z,4.90
2018-03-14T04:52:57.570Z,4.80
2018-03-14T04:55:25.038Z,5.10
2018-03-14T04:57:52.515Z,4.90
2018-03-14T05:00:20.754Z,4.70
2018-03-14T05:02:50.764Z,4.80
2018-03-14T05:05:18.247Z,4.80
2018-03-14T05:07:45.712Z,4.80
2018-03-14T05:10:13.185Z,4.80
2018-03-14T05:12:41.414Z,5.00
2018-03-14T05:15:08.888Z,4.90
2018-03-14T05:17:37.114Z,4.70
2018-03-14T05:20:04.599Z,4.90
2018-03-14T05:22:32.066Z,4.70
2018-03-14T05:24:59.553Z,4.80
2018-03-14T05:27:27.018Z,4.70
2018-03-14T05:29:54.483Z,4.70
2018-03-14T05:32:22.711Z,4.80
2018-03-14T05:34:50.191Z,4.70
2018-03-14T05:37:17.656Z,4.70
2018-03-14T05:39:45.131Z,4.70
2018-03-14T05:42:12.607Z,4.60
2018-03-14T05:44:40.853Z,4.70
2018-03-14T05:47:08.322Z,4.70
2018-03-14T05:49:35.791Z,4.90
2018-03-14T05:52:04.035Z,4.50
2018-03-14T05:54:31.518Z,4.50
2018-03-14T05:56:58.971Z,4.40
2018-03-14T05:59:26.449Z,4.50
2018-03-14T06:01:54.679Z,4.50
2018-03-14T06:04:22.150Z,4.50
2018-03-14T06:06:49.612Z,4.60
2018-03-14T06:09:17.087Z,4.70
2018-03-14T06:11:45.322Z,4.70
2018-03-14T06:14:12.806Z,4.60
2018-03-14T06:16:40.262Z,4.90
2018-03-14T06:19:07.735Z,4.70
2018-03-14T06:21:35.982Z,4.80
2018-03-14T06:24:03.650Z,4.80
2018-03-14T06:26:32.735Z,4.80
2018-03-14T06:29:00.219Z,4.70
2018-03-14T06:31:27.694Z,4.80
2018-03-14T06:33:55.945Z,4.80
2018-03-14T06:36:23.409Z,4.90
2018-03-14T06:38:50.903Z,4.80
2018-03-14T06:41:18.368Z,4.80
2018-03-14T06:43:45.839Z,4.90
2018-03-14T06:46:13.319Z,4.90
2018-03-14T06:48:40.805Z,4.80
2018-03-14T06:51:08.280Z,4.80
2018-03-14T06:53:36.508Z,4.80
2018-03-14T06:56:04.008Z,5.00
2018-03-14T06:58:44.231Z,4.90
2018-03-14T07:01:23.652Z,4.90
2018-03-14T07:04:03.049Z,4.90
2018-03-14T07:06:31.301Z,5.10
2018-03-14T07:08:58.772Z,5.10
2018-03-14T07:11:26.260Z,5.10
2018-03-14T07:13:53.739Z,5.10
2018-03-14T07:16:21.211Z,5.10
2018-03-14T07:18:48.676Z,5.10
2018-03-14T07:21:16.152Z,5.10
2018-03-14T07:23:43.634Z,5.10
2018-03-14T07:26:11.874Z,5.10
2018-03-14T07:28:39.335Z,5.10
2018-03-14T07:31:06.812Z,5.20
2018-03-14T07:33:34.271Z,5.60
2018-03-14T07:36:02.511Z,5.50
2018-03-14T07:38:29.983Z,5.40
2018-03-14T07:40:57.468Z,5.20
2018-03-14T07:43:24.935Z,5.20
2018-03-14T07:45:53.181Z,5.30
2018-03-14T07:48:20.651Z,5.10
2018-03-14T07:50:48.129Z,5.30
2018-03-14T07:53:16.355Z,5.10
2018-03-14T07:55:43.839Z,5.10
2018-03-14T07:58:11.317Z,5.10
2018-03-14T08:00:39.555Z,5.20
2018-03-14T08:03:07.015Z,5.10
2018-03-14T08:05:34.487Z,5.40
2018-03-14T08:08:01.955Z,5.20
2018-03-14T08:10:29.440Z,5.30
2018-03-14T08:12:56.899Z,5.40
2018-03-14T08:15:24.384Z,5.30
2018-03-14T08:17:51.880Z,5.30
2018-03-14T08:20:19.402Z,5.50
2018-03-14T08:22:47.587Z,5.40
2018-03-14T08:25:15.059Z,5.70
2018-03-14T08:27:43.331Z,5.40
2018-03-14T08:30:10.815Z,5.40
2018-03-14T08:32:38.286Z,5.40
2018-03-14T08:35:06.515Z,5.50
2018-03-14T08:37:33.983Z,5.50
2018-03-14T08:40:01.452Z,5.60
2018-03-14T08:42:28.921Z,5.70
2018-03-14T08:44:56.387Z,5.70
2018-03-14T08:47:24.632Z,5.80
2018-03-14T08:49:52.112Z,5.90
2018-03-14T08:52:19.583Z,6.00
2018-03-14T08:54:47.811Z,5.60
2018-03-14T08:57:15.306Z,5.60
2018-03-14T08:59:42.775Z,5.60
2018-03-14T09:02:11.024Z,5.70
2018-03-14T09:04:38.510Z,6.00
2018-03-14T09:07:06.756Z,5.70
2018-03-14T09:09:34.987Z,5.70
2018-03-14T09:12:02.484Z,5.60
2018-03-14T09:14:29.948Z,5.70
2018-03-14T09:16:57.426Z,5.70
2018-03-14T09:19:24.953Z,5.80
2018-03-14T09:21:52.453Z,5.70
2018-03-14T09:24:19.920Z,5.60
2018-03-14T09:26:48.159Z,5.50
2018-03-14T09:29:15.627Z,5.40
2018-03-14T09:31:43.133Z,5.50
2018-03-14T09:34:10.601Z,5.60
2018-03-14T09:36:38.074Z,5.60
2018-03-14T09:39:06.112Z,5.70
2018-03-14T09:41:34.356Z,5.70
2018-03-14T09:44:01.833Z,5.90
2018-03-14T09:46:30.083Z,6.00
2018-03-14T09:48:57.577Z,6.00
2018-03-14T09:51:25.839Z,5.90
2018-03-14T09:53:53.309Z,5.90
2018-03-14T09:56:21.555Z,5.80
2018-03-14T09:58:49.026Z,5.80
2018-03-14T10:01:16.514Z,5.80
2018-03-14T10:03:43.981Z,6.00
2018-03-14T10:06:11.459Z,6.00
2018-03-14T10:08:38.922Z,6.10
2018-03-14T10:11:06.387Z,5.90
2018-03-14T10:13:33.891Z,5.90
2018-03-14T10:16:02.123Z,6.10
2018-03-14T10:18:29.604Z,6.10
2018-03-14T10:20:57.099Z,6.10
2018-03-14T10:23:24.583Z,6.10
2018-03-14T10:25:52.098Z,6.20
2018-03-14T10:28:19.535Z,6.30
2018-03-14T10:30:47.002Z,6.40
2018-03-14T10:33:14.492Z,6.50
2018-03-14T10:35:41.968Z,6.50
2018-03-14T10:38:09.467Z,6.60
2018-03-14T10:40:36.923Z,6.70
2018-03-14T10:43:04.396Z,6.70
2018-03-14T10:45:31.863Z,6.70
2018-03-14T10:48:00.111Z,6.60
2018-03-14T10:50:27.572Z,6.70
2018-03-14T10:52:55.065Z,6.50
2018-03-14T10:55:23.294Z,6.30
2018-03-14T10:57:50.768Z,6.30
2018-03-14T11:00:23.964Z,6.30
2018-03-14T11:02:53.248Z,6.20
2018-03-14T11:05:27.471Z,6.20
2018-03-14T11:07:55.766Z,6.30
2018-03-14T11:10:23.266Z,6.30
2018-03-14T11:12:50.749Z,6.40
2018-03-14T11:15:18.244Z,6.40
2018-03-14T11:17:45.721Z,6.20
2018-03-14T11:20:13.950Z,6.30
2018-03-14T11:22:41.432Z,6.30
2018-03-14T11:25:08.907Z,6.30
2018-03-14T11:27:37.153Z,6.40
2018-03-14T11:30:04.630Z,6.50
2018-03-14T11:32:32.106Z,6.50
2018-03-14T11:35:00.340Z,6.50
2018-03-14T11:37:27.834Z,6.50
2018-03-14T11:39:55.291Z,6.60
2018-03-14T11:42:24.190Z,6.60
2018-03-14T11:44:51.639Z,6.60
2018-03-14T11:47:19.106Z,6.70
2018-03-14T11:49:47.378Z,6.50
2018-03-14T11:52:15.637Z,6.40
2018-03-14T11:54:43.107Z,6.40
2018-03-14T11:57:10.584Z,6.50
2018-03-14T11:59:38.814Z,6.10
2018-03-14T12:02:06.286Z,6.20
2018-03-14T12:04:33.748Z,6.10
2018-03-14T12:07:01.221Z,6.10
2018-03-14T12:09:29.457Z,6.30
2018-03-14T12:11:56.955Z,6.30
2018-03-14T12:14:25.189Z,6.50
2018-03-14T12:16:52.660Z,6.40
2018-03-14T12:19:20.153Z,6.60
2018-03-14T12:21:48.375Z,6.30
2018-03-14T12:24:15.861Z,6.20
2018-03-14T12:26:43.338Z,6.40
2018-03-14T12:29:11.604Z,6.50
2018-03-14T12:31:39.079Z,6.60
2018-03-14T12:34:07.320Z,6.40
2018-03-14T12:36:34.795Z,6.30
2018-03-14T12:39:02.289Z,6.50
2018-03-14T12:41:30.532Z,6.50
2018-03-14T12:43:58.010Z,6.40
2018-03-14T12:46:26.251Z,6.30
2018-03-14T12:48:53.727Z,6.30
2018-03-14T12:51:21.201Z,6.40
2018-03-14T12:53:49.443Z,6.60
2018-03-14T12:56:16.948Z,6.60
2018-03-14T12:58:45.168Z,6.70
2018-03-14T13:01:12.635Z,6.90
2018-03-14T13:03:40.118Z,6.70
2018-03-14T13:06:07.589Z,6.70
2018-03-14T13:08:35.827Z,6.80
2018-03-14T13:11:03.307Z,6.70
2018-03-14T13:13:30.791Z,6.90
2018-03-14T13:15:59.019Z,7.00
2018-03-14T13:18:26.502Z,6.80
2018-03-14T13:20:53.973Z,7.10
2018-03-14T13:23:21.449Z,7.20
2018-03-14T13:25:48.914Z,7.30
2018-03-14T13:28:16.388Z,7.40
2018-03-14T13:30:43.858Z,7.50
2018-03-14T13:33:11.331Z,7.60
2018-03-14T13:35:38.814Z,7.60
2018-03-14T13:38:06.299Z,7.70
2018-03-14T13:40:33.778Z,7.70
2018-03-14T13:43:01.266Z,7.70
2018-03-14T13:45:28.771Z,7.80
2018-03-14T13:47:56.280Z,7.70
2018-03-14T13:50:23.767Z,7.60
2018-03-14T13:52:52.015Z,7.50
2018-03-14T13:55:19.492Z,7.70
2018-03-14T13:57:46.966Z,7.40
2018-03-14T14:00:15.203Z,7.50
2018-03-14T14:02:42.684Z,7.60
2018-03-14T14:05:10.160Z,7.40
2018-03-14T14:07:37.636Z,7.30
2018-03-14T14:10:05.128Z,7.20
2018-03-14T14:12:32.605Z,7.20
2018-03-14T14:15:00.066Z,7.30
2018-03-14T14:17:27.536Z,7.30
2018-03-14T14:19:55.015Z,7.40
2018-03-14T14:22:23.283Z,7.50
2018-03-14T14:24:50.761Z,7.70
2018-03-14T14:27:18.986Z,7.50
2018-03-14T14:29:46.465Z,7.60
2018-03-14T14:32:13.937Z,7.60
2018-03-14T14:34:42.171Z,7.60
2018-03-14T14:37:09.643Z,7.60
2018-03-14T14:39:38.711Z,7.60
2018-03-14T14:42:06.185Z,7.60
2018-03-14T14:44:33.678Z,7.60
2018-03-14T14:47:01.155Z,7.70
2018-03-14T14:49:29.429Z,7.70
2018-03-14T14:51:56.888Z,7.70
2018-03-14T14:54:25.123Z,7.90
2018-03-14T14:56:52.619Z,7.90
2018-03-14T14:59:20.851Z,7.80
2018-03-14T15:01:48.329Z,8.00
2018-03-14T15:04:15.806Z,7.80
2018-03-14T15:06:44.870Z,7.80
2018-03-14T15:09:12.357Z,7.80
2018-03-14T15:11:39.813Z,7.80
2018-03-14T15:14:07.292Z,7.80
2018-03-14T15:16:34.755Z,7.70
2018-03-14T15:19:02.254Z,7.60
2018-03-14T15:21:29.830Z,7.70
2018-03-14T15:23:57.207Z,7.80
2018-03-14T15:26:24.668Z,7.90
2018-03-14T15:28:52.139Z,7.90
2018-03-14T15:31:20.375Z,7.90
2018-03-14T15:33:47.853Z,8.00
2018-03-14T15:36:16.100Z,7.90
2018-03-14T15:38:43.567Z,8.10
2018-03-14T15:41:11.042Z,7.90
2018-03-14T15:43:38.520Z,7.90
2018-03-14T15:46:06.777Z,7.90
2018-03-14T15:48:34.265Z,7.80
2018-03-14T15:51:02.502Z,7.80
2018-03-14T15:53:30.000Z,7.80
2018-03-14T15:55:57.473Z,7.80
2018-03-14T15:58:24.947Z,7.70
2018-03-14T16:00:52.407Z,7.70
2018-03-14T16:03:19.888Z,7.70
2018-03-14T16:05:47.360Z,7.70
2018-03-14T16:08:14.857Z,7.60
2018-03-14T16:10:42.381Z,7.60
2018-03-14T16:13:09.909Z,7.60
2018-03-14T16:15:37.379Z,7.70
2018-03-14T16:18:04.862Z,7.70
2018-03-14T16:20:32.340Z,7.80
2018-03-14T16:23:00.621Z,7.80
2018-03-14T16:25:28.063Z,7.80
2018-03-14T16:27:56.292Z,7.80
2018-03-14T16:30:23.770Z,7.70
2018-03-14T16:32:51.239Z,7.80
2018-03-14T16:35:18.724Z,7.80
2018-03-14T16:37:46.960Z,7.80
2018-03-14T16:40:14.427Z,8.00
2018-03-14T16:42:41.901Z,7.80
2018-03-14T16:45:09.381Z,7.80
2018-03-14T16:47:37.608Z,7.70
2018-03-14T16:50:05.086Z,7.80
2018-03-14T16:52:32.555Z,7.70
2018-03-14T16:55:00.822Z,7.60
2018-03-14T16:57:28.303Z,7.80
2018-03-14T16:59:56.547Z,7.60
2018-03-14T17:02:24.011Z,7.70
2018-03-14T17:04:51.565Z,7.60
2018-03-14T17:07:18.966Z,7.60
2018-03-14T17:09:46.441Z,7.60
2018-03-14T17:12:13.895Z,7.60
2018-03-14T17:14:41.376Z,7.60
2018-03-14T17:17:08.852Z,7.60
2018-03-14T17:19:37.844Z,7.40
2018-03-14T17:22:05.317Z,7.50
2018-03-14T17:24:32.791Z,7.30
2018-03-14T17:27:01.023Z,7.10
2018-03-14T17:29:28.504Z,7.10
2018-03-14T17:31:55.968Z,7.10
2018-03-14T17:34:23.452Z,7.00
2018-03-14T17:36:51.678Z,6.90
2018-03-14T17:39:19.156Z,7.10
2018-03-14T17:41:46.631Z,6.80
2018-03-14T17:44:14.887Z,6.70
2018-03-14T17:46:42.348Z,6.60
2018-03-14T17:49:09.823Z,6.70
2018-03-14T17:51:38.054Z,6.60
2018-03-14T17:54:05.538Z,6.90
2018-03-14T17:56:33.008Z,6.60
2018-03-14T17:59:00.468Z,6.60
2018-03-14T18:01:27.969Z,6.50
2018-03-14T18:03:55.440Z,6.50
2018-03-14T18:06:22.920Z,6.50
2018-03-14T18:08:50.397Z,6.50
2018-03-14T18:11:17.871Z,6.50
2018-03-14T18:13:46.103Z,6.50
2018-03-14T18:16:13.589Z,6.40
2018-03-14T18:18:41.052Z,6.50
2018-03-14T18:21:08.518Z,6.60
2018-03-14T18:23:36.789Z,6.60
2018-03-14T18:26:04.262Z,6.70
2018-03-14T18:28:32.515Z,6.70
2018-03-14T18:30:59.986Z,6.80
2018-03-14T18:33:28.230Z,6.70
2018-03-14T18:35:55.699Z,6.50
2018-03-14T18:38:23.162Z,6.70
2018-03-14T18:40:50.646Z,6.60
2018-03-14T18:43:18.876Z,6.50
2018-03-14T18:45:46.359Z,6.40
2018-03-14T18:48:13.825Z,6.40
2018-03-14T18:50:41.299Z,6.40
2018-03-14T18:53:09.532Z,6.20
2018-03-14T18:55:37.021Z,6.10
2018-03-14T18:58:04.479Z,6.20
2018-03-14T19:00:32.717Z,6.10
2018-03-14T19:03:00.191Z,6.10
2018-03-14T19:05:27.674Z,6.10
2018-03-14T19:07:55.919Z,6.20
2018-03-14T19:10:23.395Z,6.30
2018-03-14T19:12:50.882Z,6.20
2018-03-14T19:15:19.151Z,6.10
2018-03-14T19:17:47.400Z,6.10
2018-03-14T19:20:14.874Z,6.30
2018-03-14T19:22:42.344Z,6.10
2018-03-14T19:25:10.604Z,6.20
2018-03-14T19:27:38.862Z,6.20
2018-03-14T19:30:06.335Z,6.40
2018-03-14T19:32:33.808Z,6.30
2018-03-14T19:35:02.044Z,6.20
2018-03-14T19:37:29.535Z,6.30
2018-03-14T19:39:57.004Z,6.30
2018-03-14T19:42:25.250Z,6.20
2018-03-14T19:44:52.722Z,6.10
2018-03-14T19:47:20.996Z,6.30
2018-03-14T19:49:48.509Z,6.30
2018-03-14T19:52:15.980Z,6.30
2018-03-14T19:54:43.451Z,6.20
2018-03-14T19:57:10.936Z,6.20
2018-03-14T19:59:38.422Z,6.30
2018-03-14T20:02:06.663Z,6.20
2018-03-14T20:04:34.138Z,6.40
2018-03-14T20:07:01.606Z,6.20
2018-03-14T20:09:29.847Z,6.20
2018-03-14T20:11:57.341Z,6.20
2018-03-14T20:14:25.586Z,6.20
2018-03-14T20:16:53.071Z,6.00
2018-03-14T20:19:21.313Z,6.10
2018-03-14T20:21:48.802Z,6.20
2018-03-14T20:24:17.048Z,6.00
2018-03-14T20:26:44.530Z,6.00
2018-03-14T20:29:12.005Z,5.90
2018-03-14T20:31:40.244Z,5.80
2018-03-14T20:34:07.702Z,5.90
2018-03-14T20:36:35.189Z,5.90
2018-03-14T20:39:03.696Z,5.80
2018-03-14T20:41:31.162Z,5.90
2018-03-14T20:43:58.622Z,5.70
2018-03-14T20:46:26.092Z,5.70
2018-03-14T20:48:53.566Z,5.70
2018-03-14T20:51:21.036Z,5.70
2018-03-14T20:53:48.506Z,5.70
2018-03-14T20:56:16.045Z,5.60
2018-03-14T20:58:43.471Z,5.50
2018-03-14T21:01:10.947Z,5.40
2018-03-14T21:03:38.414Z,5.30
2018-03-14T21:06:05.928Z,5.40
2018-03-14T21:08:37.816Z,5.40
2018-03-14T21:11:05.353Z,5.40
2018-03-14T21:13:32.833Z,5.40
2018-03-14T21:16:00.304Z,5.40
2018-03-14T21:18:27.780Z,5.40
2018-03-14T21:20:55.284Z,5.40
2018-03-14T21:23:23.527Z,5.20
2018-03-14T21:25:51.024Z,5.40
2018-03-14T21:28:18.483Z,5.30
2018-03-14T21:30:45.966Z,5.40
2018-03-14T21:33:13.435Z,5.10
2018-03-14T21:35:40.925Z,5.10
2018-03-14T21:38:08.419Z,5.00
2018-03-14T21:40:35.877Z,4.80
2018-03-14T21:43:03.366Z,4.80
2018-03-14T21:45:30.832Z,4.80
2018-03-14T21:47:58.311Z,4.80
2018-03-14T21:50:25.824Z,4.80
2018-03-14T21:52:53.309Z,5.00
2018-03-14T21:55:32.680Z,4.90
2018-03-14T21:58:00.161Z,4.90
2018-03-14T22:00:27.623Z,4.80
2018-03-14T22:02:55.114Z,4.90
2018-03-14T22:05:23.347Z,4.50
2018-03-14T22:07:51.601Z,4.60
2018-03-14T22:10:19.070Z,4.30
2018-03-14T22:12:47.321Z,4.60
2018-03-14T22:15:14.794Z,4.40
2018-03-14T22:17:42.277Z,4.20
2018-03-14T22:20:09.756Z,4.20
2018-03-14T22:22:37.242Z,4.30
2018-03-14T22:25:04.707Z,4.40
2018-03-14T22:27:32.184Z,4.30
2018-03-14T22:29:59.661Z,3.90
2018-03-14T22:32:27.915Z,3.80
2018-03-14T22:34:55.383Z,3.70
2018-03-14T22:37:23.643Z,3.40
2018-03-14T22:39:51.135Z,3.40
2018-03-14T22:42:19.389Z,3.90
2018-03-14T22:44:46.861Z,3.70
2018-03-14T22:47:15.100Z,3.70
2018-03-14T22:49:42.580Z,3.60
2018-03-14T22:52:10.074Z,3.50
2018-03-14T22:54:37.550Z,3.50
2018-03-14T22:57:05.034Z,3.50
2018-03-14T22:59:32.509Z,3.50
2018-03-14T23:01:59.991Z,3.30
2018-03-14T23:04:28.232Z,2.90
2018-03-14T23:06:55.713Z,2.90
2018-03-14T23:09:23.184Z,2.50
2018-03-14T23:11:51.431Z,2.60
2018-03-14T23:14:18.894Z,2.60
2018-03-14T23:16:46.371Z,2.60
2018-03-14T23:19:14.608Z,2.50
2018-03-14T23:21:42.090Z,2.60
2018-03-14T23:24:09.566Z,2.60
2018-03-14T23:26:37.816Z,2.60
2018-03-14T23:29:05.299Z,2.60
2018-03-14T23:31:33.552Z,2.20
2018-03-14T23:34:01.023Z,2.40
2018-03-14T23:36:29.280Z,2.30
2018-03-14T23:38:56.911Z,2.20
2018-03-14T23:41:24.422Z,2.40
2018-03-14T23:43:51.907Z,2.40
2018-03-14T23:46:20.139Z,2.60
2018-03-14T23:48:47.635Z,2.60
2018-03-14T23:51:15.106Z,2.20
2018-03-14T23:53:42.599Z,2.30
2018-03-14T23:56:10.089Z,2.50
2018-03-14T23:58:37.564Z,2.40
